createdAt,value
2022-10-16T00:00:55.151Z,11.43
2022-10-16T00:03:25.383Z,11.52
2022-10-16T00:05:54.850Z,11.51
2022-10-16T00:08:21.615Z,11.53
2022-10-16T00:10:48.315Z,11.50
2022-10-16T00:13:15.164Z,11.53
2022-10-16T00:15:44.262Z,11.51
2022-10-16T00:18:11.389Z,11.53
2022-10-16T00:20:38.234Z,11.54
2022-10-16T00:23:06.275Z,11.48
2022-10-16T00:25:33.983Z,11.55
2022-10-16T00:28:02.054Z,11.61
2022-10-16T00:30:29.143Z,11.61
2022-10-16T00:32:56.514Z,11.46
2022-10-16T00:35:23.366Z,11.59
2022-10-16T00:37:50.569Z,11.59
2022-10-16T00:40:17.655Z,11.57
2022-10-16T00:42:44.367Z,11.52
2022-10-16T00:45:11.904Z,11.48
2022-10-16T00:47:42.585Z,11.53
2022-10-16T00:50:14.819Z,11.46
2022-10-16T00:52:46.841Z,11.53
2022-10-16T00:55:14.090Z,11.53
2022-10-16T00:57:41.055Z,11.29
2022-10-16T01:00:10.688Z,11.42
2022-10-16T01:02:37.709Z,11.55
2022-10-16T01:05:05.805Z,11.66
2022-10-16T01:07:58.207Z,11.63
2022-10-16T01:10:48.502Z,11.52
2022-10-16T01:13:50.694Z,11.49
2022-10-16T01:16:34.777Z,11.56
2022-10-16T01:19:13.264Z,11.56
2022-10-16T01:21:45.250Z,11.52
2022-10-16T01:24:38.990Z,11.47
2022-10-16T01:27:22.256Z,11.49
2022-10-16T01:30:01.095Z,11.49
2022-10-16T01:33:06.100Z,11.55
2022-10-16T01:35:39.918Z,11.60
2022-10-16T01:38:17.326Z,11.55
2022-10-16T01:40:50.749Z,11.64
2022-10-16T01:43:22.164Z,11.67
2022-10-16T01:45:49.569Z,11.64
2022-10-16T01:48:19.942Z,11.63
2022-10-16T01:51:05.055Z,11.56
2022-10-16T01:53:32.826Z,11.48
2022-10-16T01:56:00.594Z,11.44
2022-10-16T01:58:31.937Z,11.66
2022-10-16T02:00:58.829Z,11.61
2022-10-16T02:03:25.649Z,11.68
2022-10-16T02:05:57.935Z,11.68
2022-10-16T02:08:29.258Z,11.67
2022-10-16T02:10:57.418Z,11.59
2022-10-16T02:13:46.366Z,11.72
2022-10-16T02:16:15.195Z,11.89
2022-10-16T02:18:44.635Z,11.76
2022-10-16T02:21:26.624Z,11.79
2022-10-16T02:24:07.406Z,11.71
2022-10-16T02:26:46.259Z,11.86
2022-10-16T02:29:17.822Z,11.81
2022-10-16T02:31:49.187Z,11.72
2022-10-16T02:34:19.005Z,11.50
2022-10-16T02:36:49.394Z,11.86
2022-10-16T02:39:17.566Z,11.93
2022-10-16T02:41:44.386Z,11.67
2022-10-16T02:44:11.147Z,11.78
2022-10-16T02:46:37.847Z,11.72
2022-10-16T02:49:04.627Z,11.67
2022-10-16T02:51:31.476Z,11.65
2022-10-16T02:53:58.177Z,11.67
2022-10-16T02:56:25.170Z,11.72
2022-10-16T02:58:51.898Z,11.69
2022-10-16T03:01:18.583Z,11.60
2022-10-16T03:03:45.324Z,11.62
2022-10-16T03:06:12.059Z,11.75
2022-10-16T03:08:38.794Z,11.71
2022-10-16T03:11:05.617Z,11.67
2022-10-16T03:13:32.311Z,11.66
2022-10-16T03:15:59.016Z,11.59
2022-10-16T03:18:25.814Z,11.69
2022-10-16T03:20:52.705Z,11.68
2022-10-16T03:23:19.389Z,11.75
2022-10-16T03:25:48.243Z,11.64
2022-10-16T03:28:15.338Z,11.65
2022-10-16T03:30:42.025Z,11.53
2022-10-16T03:33:09.909Z,11.65
2022-10-16T03:35:36.730Z,11.58
2022-10-16T03:38:03.785Z,11.52
2022-10-16T03:40:32.596Z,11.54
2022-10-16T03:42:59.777Z,11.61
2022-10-16T03:45:27.324Z,11.58
2022-10-16T03:47:53.998Z,11.58
2022-10-16T03:50:20.856Z,11.62
2022-10-16T03:52:47.683Z,11.62
2022-10-16T03:55:14.546Z,11.53
2022-10-16T03:57:41.304Z,11.52
2022-10-16T04:00:08.729Z,11.57
2022-10-16T04:02:35.525Z,11.59
2022-10-16T04:05:02.446Z,11.59
2022-10-16T04:07:29.807Z,11.55
2022-10-16T04:09:58.256Z,11.40
2022-10-16T04:12:25.074Z,11.37
2022-10-16T04:14:51.829Z,11.26
2022-10-16T04:17:18.676Z,11.17
2022-10-16T04:19:45.442Z,11.11
2022-10-16T04:22:12.239Z,11.09
2022-10-16T04:24:39.264Z,11.18
2022-10-16T04:27:05.964Z,11.25
2022-10-16T04:29:32.702Z,11.24
2022-10-16T04:31:59.434Z,11.07
2022-10-16T04:34:26.144Z,11.11
2022-10-16T04:36:52.875Z,11.14
2022-10-16T04:39:19.663Z,11.29
2022-10-16T04:41:46.800Z,11.21
2022-10-16T04:44:13.525Z,11.33
2022-10-16T04:46:40.224Z,11.17
2022-10-16T04:49:07.105Z,11.18
2022-10-16T04:51:34.044Z,11.16
2022-10-16T04:54:00.776Z,11.31
2022-10-16T04:56:27.504Z,11.27
2022-10-16T04:58:54.354Z,11.13
2022-10-16T05:01:21.154Z,11.17
2022-10-16T05:03:47.849Z,11.48
2022-10-16T05:06:14.677Z,11.45
2022-10-16T05:08:41.474Z,11.18
2022-10-16T05:11:08.289Z,11.07
2022-10-16T05:13:36.128Z,11.18
2022-10-16T05:16:02.807Z,11.16
2022-10-16T05:18:29.522Z,11.10
2022-10-16T05:20:56.291Z,11.18
2022-10-16T05:23:22.980Z,11.21
2022-10-16T05:25:59.386Z,11.19
2022-10-16T05:28:31.457Z,11.17
2022-10-16T05:30:58.676Z,11.17
2022-10-16T05:33:26.746Z,11.20
2022-10-16T05:35:53.473Z,11.40
2022-10-16T05:38:20.238Z,11.40
2022-10-16T05:40:57.363Z,11.29
2022-10-16T05:43:24.268Z,11.39
2022-10-16T05:45:59.013Z,11.23
2022-10-16T05:48:26.539Z,11.44
2022-10-16T05:51:05.717Z,11.50
2022-10-16T05:53:35.437Z,11.48
2022-10-16T05:56:03.276Z,11.52
2022-10-16T05:58:32.527Z,11.49
2022-10-16T06:01:01.680Z,11.46
2022-10-16T06:03:29.045Z,11.38
2022-10-16T06:05:55.923Z,11.35
2022-10-16T06:08:23.998Z,11.45
2022-10-16T06:11:01.819Z,11.39
2022-10-16T06:13:28.585Z,11.30
2022-10-16T06:15:59.492Z,11.41
2022-10-16T06:18:27.196Z,11.41
2022-10-16T06:20:54.871Z,11.34
2022-10-16T06:23:21.585Z,11.41
2022-10-16T06:25:49.405Z,11.48
2022-10-16T06:28:16.994Z,11.57
2022-10-16T06:30:46.927Z,11.62
2022-10-16T06:33:13.578Z,11.61
2022-10-16T06:35:40.347Z,11.61
2022-10-16T06:38:07.308Z,11.62
2022-10-16T06:40:34.141Z,11.51
2022-10-16T06:43:00.841Z,11.59
2022-10-16T06:45:27.627Z,11.64
2022-10-16T06:47:54.374Z,11.58
2022-10-16T06:50:21.112Z,11.67
2022-10-16T06:52:48.998Z,11.54
2022-10-16T06:55:16.369Z,11.58
2022-10-16T06:57:43.077Z,11.63
2022-10-16T07:00:10.167Z,11.70
2022-10-16T07:02:36.867Z,11.79
2022-10-16T07:05:03.881Z,11.87
2022-10-16T07:07:30.643Z,12.01
2022-10-16T07:09:57.331Z,12.16
2022-10-16T07:12:24.330Z,12.19
2022-10-16T07:14:53.381Z,12.14
2022-10-16T07:17:20.115Z,12.13
2022-10-16T07:19:46.844Z,12.11
2022-10-16T07:22:13.496Z,12.03
2022-10-16T07:24:49.162Z,12.20
2022-10-16T07:27:25.078Z,12.21
2022-10-16T07:29:51.885Z,12.29
2022-10-16T07:32:19.812Z,12.33
2022-10-16T07:34:56.972Z,12.40
2022-10-16T07:37:23.976Z,12.47
2022-10-16T07:40:01.951Z,12.58
2022-10-16T07:42:37.841Z,12.76
2022-10-16T07:45:04.985Z,12.64
2022-10-16T07:47:31.738Z,12.74
2022-10-16T07:49:58.445Z,12.78
2022-10-16T07:52:31.425Z,12.90
2022-10-16T07:54:58.092Z,12.96
2022-10-16T07:57:25.142Z,12.93
2022-10-16T08:00:00.009Z,13.09
2022-10-16T08:02:26.707Z,13.16
2022-10-16T08:04:53.366Z,13.35
2022-10-16T08:07:20.402Z,13.33
2022-10-16T08:09:51.084Z,13.57
2022-10-16T08:12:17.849Z,13.51
2022-10-16T08:14:47.065Z,13.35
2022-10-16T08:17:15.655Z,13.55
2022-10-16T08:19:46.259Z,13.47
2022-10-16T08:24:41.065Z,13.71
2022-10-16T08:27:10.485Z,13.63
2022-10-16T08:29:37.424Z,13.67
2022-10-16T08:32:05.226Z,13.66
2022-10-16T08:34:32.029Z,14.00
2022-10-16T08:36:58.846Z,14.25
2022-10-16T08:39:27.030Z,14.25
2022-10-16T08:42:10.834Z,14.46
2022-10-16T08:44:46.786Z,14.35
2022-10-16T08:47:25.238Z,14.23
2022-10-16T08:49:55.001Z,14.40
2022-10-16T08:52:21.625Z,14.37
2022-10-16T08:54:53.001Z,14.51
2022-10-16T08:57:25.253Z,14.39
2022-10-16T08:59:53.648Z,14.50
2022-10-16T09:02:38.756Z,14.35
2022-10-16T09:05:39.378Z,14.67
2022-10-16T09:08:21.257Z,15.04
2022-10-16T09:11:05.852Z,15.01
2022-10-16T09:14:13.898Z,14.72
2022-10-16T09:16:51.409Z,14.88
2022-10-16T09:19:46.539Z,14.88
2022-10-16T09:22:18.281Z,14.89
2022-10-16T09:24:51.530Z,14.98
2022-10-16T09:27:19.001Z,15.08
2022-10-16T09:29:45.881Z,15.12
2022-10-16T09:32:20.432Z,15.42
2022-10-16T09:34:51.967Z,15.31
2022-10-16T09:37:22.442Z,15.68
2022-10-16T09:39:52.094Z,15.23
2022-10-16T09:42:26.738Z,15.35
2022-10-16T09:44:54.844Z,15.34
2022-10-16T09:47:27.448Z,15.60
2022-10-16T09:50:02.528Z,15.97
2022-10-16T09:52:31.164Z,16.07
2022-10-16T09:55:00.440Z,15.88
2022-10-16T09:57:28.042Z,16.20
2022-10-16T09:59:59.837Z,16.32
2022-10-16T10:02:37.975Z,16.37
2022-10-16T10:05:18.175Z,16.39
2022-10-16T10:07:48.674Z,16.96
2022-10-16T10:10:28.108Z,17.45
2022-10-16T10:12:56.472Z,17.46
2022-10-16T10:15:35.820Z,17.56
2022-10-16T10:18:04.400Z,17.89
2022-10-16T10:20:39.926Z,17.78
2022-10-16T10:23:24.180Z,17.53
2022-10-16T10:26:06.303Z,17.21
2022-10-16T10:28:51.809Z,17.57
2022-10-16T10:31:27.880Z,17.73
2022-10-16T10:34:07.171Z,17.36
2022-10-16T10:36:38.718Z,17.44
2022-10-16T10:39:08.380Z,17.65
2022-10-16T10:41:40.792Z,17.82
2022-10-16T10:44:22.540Z,17.81
2022-10-16T10:47:02.742Z,17.50
2022-10-16T10:49:43.286Z,17.65
2022-10-16T10:52:23.660Z,17.72
2022-10-16T10:55:21.686Z,17.78
2022-10-16T10:58:10.044Z,17.99
2022-10-16T11:00:48.834Z,18.22
2022-10-16T11:03:48.811Z,18.17
2022-10-16T11:06:28.149Z,17.86
2022-10-16T11:09:16.670Z,17.77
2022-10-16T11:11:54.019Z,17.60
2022-10-16T11:14:30.424Z,17.46
2022-10-16T11:17:13.706Z,17.31
2022-10-16T11:19:52.352Z,17.32
2022-10-16T11:22:30.973Z,17.34
2022-10-16T11:25:29.264Z,17.30
2022-10-16T11:28:14.373Z,17.29
2022-10-16T11:30:48.408Z,17.24
2022-10-16T11:33:32.819Z,17.35
2022-10-16T11:36:02.140Z,17.39
2022-10-16T11:38:43.858Z,17.42
2022-10-16T11:41:33.376Z,17.58
2022-10-16T11:44:18.610Z,17.64
2022-10-16T11:46:59.416Z,17.58
2022-10-16T11:49:38.857Z,17.60
2022-10-16T11:52:17.677Z,17.71
2022-10-16T11:55:10.435Z,17.66
2022-10-16T11:57:52.292Z,17.77
2022-10-16T12:00:40.041Z,17.70
2022-10-16T12:03:50.613Z,17.84
2022-10-16T12:06:47.427Z,18.03
2022-10-16T12:09:28.685Z,18.08
2022-10-16T12:11:56.806Z,17.93
2022-10-16T12:14:42.921Z,18.06
2022-10-16T12:17:42.933Z,18.03
2022-10-16T12:20:28.801Z,17.90
2022-10-16T12:23:03.502Z,17.87
2022-10-16T12:25:33.740Z,17.79
2022-10-16T12:28:18.870Z,17.89
2022-10-16T12:30:54.836Z,17.69
2022-10-16T12:33:31.348Z,18.14
2022-10-16T12:36:00.897Z,18.17
2022-10-16T12:38:46.585Z,18.25
2022-10-16T12:41:28.939Z,18.30
2022-10-16T12:43:56.816Z,18.30
2022-10-16T12:47:07.401Z,18.30
2022-10-16T12:49:39.753Z,18.30
2022-10-16T12:52:29.436Z,18.34
2022-10-16T12:55:01.833Z,18.43
2022-10-16T12:57:36.889Z,18.59
2022-10-16T13:00:27.236Z,18.62
2022-10-16T13:03:31.719Z,18.76
2022-10-16T13:06:23.481Z,18.98
2022-10-16T13:09:29.017Z,19.09
2022-10-16T13:12:11.456Z,19.02
2022-10-16T13:15:13.369Z,19.03
2022-10-16T13:18:23.933Z,19.23
2022-10-16T13:20:53.774Z,19.25
2022-10-16T13:23:32.661Z,19.09
2022-10-16T13:26:21.371Z,19.06
2022-10-16T13:28:48.233Z,18.96
2022-10-16T13:31:27.234Z,19.26
2022-10-16T13:33:57.000Z,19.20
2022-10-16T13:36:26.753Z,19.39
2022-10-16T13:39:13.121Z,19.48
2022-10-16T13:41:40.114Z,19.44
2022-10-16T13:44:21.156Z,19.57
2022-10-16T13:46:48.036Z,19.86
2022-10-16T13:49:17.750Z,20.26
2022-10-16T13:51:58.716Z,20.34
2022-10-16T13:54:27.009Z,20.27
2022-10-16T13:57:03.464Z,20.25
2022-10-16T13:59:39.684Z,20.37
2022-10-16T14:02:21.347Z,20.21
2022-10-16T14:04:49.600Z,20.35
2022-10-16T14:07:26.360Z,20.26
2022-10-16T14:09:54.427Z,20.30
2022-10-16T14:12:29.276Z,20.24
2022-10-16T14:15:01.044Z,20.44
2022-10-16T14:17:34.065Z,19.90
2022-10-16T14:20:07.687Z,19.96
2022-10-16T14:22:42.830Z,19.94
2022-10-16T14:25:21.747Z,20.13
2022-10-16T14:28:20.126Z,19.45
2022-10-16T14:30:58.386Z,19.61
2022-10-16T14:33:30.184Z,19.82
2022-10-16T14:36:04.870Z,19.29
2022-10-16T14:38:33.501Z,19.19
2022-10-16T14:41:01.654Z,18.89
2022-10-16T14:43:47.486Z,19.02
2022-10-16T14:48:50.286Z,18.82
2022-10-16T14:51:19.047Z,18.69
2022-10-16T14:53:46.549Z,18.25
2022-10-16T14:56:20.761Z,18.28
2022-10-16T14:58:47.699Z,18.03
2022-10-16T15:01:14.646Z,18.01
2022-10-16T15:03:41.854Z,18.35
2022-10-16T15:06:16.711Z,18.21
2022-10-16T15:08:43.662Z,18.03
2022-10-16T15:11:16.659Z,17.99
2022-10-16T15:13:44.132Z,17.27
2022-10-16T15:16:17.210Z,16.83
2022-10-16T15:18:44.593Z,16.97
2022-10-16T15:21:30.184Z,16.60
2022-10-16T15:24:00.132Z,16.78
2022-10-16T15:26:29.159Z,16.72
2022-10-16T15:28:56.679Z,16.44
2022-10-16T15:31:24.949Z,16.74
2022-10-16T15:33:59.410Z,16.16
2022-10-16T15:36:28.513Z,15.94
2022-10-16T15:38:56.394Z,15.81
2022-10-16T15:41:24.672Z,15.83
2022-10-16T15:43:51.979Z,15.56
2022-10-16T15:46:21.845Z,15.52
2022-10-16T15:48:57.274Z,15.50
2022-10-16T15:51:33.522Z,15.46
2022-10-16T15:54:02.985Z,15.86
2022-10-16T15:56:31.866Z,15.47
2022-10-16T15:59:00.043Z,15.37
2022-10-16T16:01:28.078Z,15.16
2022-10-16T16:06:40.505Z,15.30
2022-10-16T16:09:07.459Z,14.92
2022-10-16T16:11:38.996Z,15.02
2022-10-16T16:14:16.891Z,15.13
2022-10-16T16:16:44.017Z,14.74
2022-10-16T16:19:12.311Z,14.67
2022-10-16T16:21:39.764Z,14.54
2022-10-16T16:24:11.286Z,14.84
2022-10-16T16:26:46.967Z,14.54
2022-10-16T16:29:18.218Z,14.35
2022-10-16T16:31:50.362Z,14.66
2022-10-16T16:34:17.393Z,14.52
2022-10-16T16:36:47.605Z,14.46
2022-10-16T16:39:15.729Z,14.36
2022-10-16T16:41:42.708Z,14.08
2022-10-16T16:44:12.135Z,13.98
2022-10-16T16:46:40.895Z,14.02
2022-10-16T16:49:13.230Z,13.70
2022-10-16T16:51:41.418Z,13.67
2022-10-16T16:54:09.493Z,13.93
2022-10-16T16:56:39.342Z,14.01
2022-10-16T16:59:06.841Z,14.08
2022-10-16T17:01:34.330Z,13.76
2022-10-16T17:04:06.744Z,13.32
2022-10-16T17:06:41.891Z,13.16
2022-10-16T17:09:11.381Z,13.01
2022-10-16T17:11:38.781Z,13.28
2022-10-16T17:14:10.334Z,12.91
2022-10-16T17:16:49.476Z,13.01
2022-10-16T17:19:24.052Z,13.13
2022-10-16T17:21:55.031Z,13.08
2022-10-16T17:24:23.137Z,13.06
2022-10-16T17:26:51.621Z,12.76
2022-10-16T17:29:19.791Z,12.94
2022-10-16T17:31:50.837Z,12.94
2022-10-16T17:34:19.549Z,12.67
2022-10-16T17:36:51.683Z,12.67
2022-10-16T17:39:26.749Z,12.36
2022-10-16T17:41:58.796Z,12.54
2022-10-16T17:44:29.143Z,12.24
2022-10-16T17:46:58.425Z,12.06
2022-10-16T17:49:26.889Z,12.45
2022-10-16T17:51:58.343Z,12.39
2022-10-16T17:54:29.795Z,12.21
2022-10-16T17:57:00.345Z,12.31
2022-10-16T17:59:30.684Z,12.16
2022-10-16T18:02:00.436Z,12.09
2022-10-16T18:04:33.803Z,12.02
2022-10-16T18:07:02.751Z,11.98
2022-10-16T18:09:42.540Z,11.94
2022-10-16T18:12:25.236Z,11.96
2022-10-16T18:14:59.889Z,11.87
2022-10-16T18:17:29.394Z,11.88
2022-10-16T18:19:57.154Z,11.90
2022-10-16T18:22:25.880Z,12.02
2022-10-16T18:24:55.282Z,11.86
2022-10-16T18:27:23.325Z,11.72
2022-10-16T18:29:57.742Z,11.66
2022-10-16T18:32:29.387Z,11.66
2022-10-16T18:34:58.165Z,11.65
2022-10-16T18:37:26.326Z,11.61
2022-10-16T18:39:55.895Z,11.49
2022-10-16T18:42:24.273Z,11.48
2022-10-16T18:44:52.803Z,11.60
2022-10-16T18:47:20.963Z,11.37
2022-10-16T18:49:51.756Z,11.33
2022-10-16T18:52:19.284Z,11.39
2022-10-16T18:54:47.015Z,11.49
2022-10-16T18:57:15.724Z,11.35
2022-10-16T18:59:44.105Z,11.22
2022-10-16T19:02:21.790Z,11.23
2022-10-16T19:04:50.179Z,11.17
2022-10-16T19:07:19.016Z,11.07
2022-10-16T19:09:47.290Z,11.12
2022-10-16T19:12:16.191Z,11.10
2022-10-16T19:14:49.616Z,11.08
2022-10-16T19:17:22.156Z,11.10
2022-10-16T19:19:52.956Z,11.10
2022-10-16T19:22:33.200Z,11.23
2022-10-16T19:25:04.325Z,11.28
2022-10-16T19:27:34.311Z,11.21
2022-10-16T19:30:02.569Z,11.22
2022-10-16T19:32:33.076Z,11.10
2022-10-16T19:35:06.207Z,11.07
2022-10-16T19:37:34.676Z,11.16
2022-10-16T19:40:02.890Z,11.07
2022-10-16T19:42:31.712Z,11.27
2022-10-16T19:45:02.590Z,11.15
2022-10-16T19:47:31.536Z,11.13
2022-10-16T19:50:00.261Z,10.92
2022-10-16T19:52:37.143Z,10.96
2022-10-16T19:55:07.306Z,10.67
2022-10-16T19:57:36.923Z,10.89
2022-10-16T20:00:08.294Z,10.91
2022-10-16T20:02:37.241Z,10.82
2022-10-16T20:05:05.373Z,10.91
2022-10-16T20:07:34.805Z,10.87
2022-10-16T20:10:02.336Z,10.79
2022-10-16T20:12:29.660Z,10.82
2022-10-16T20:14:57.587Z,10.77
2022-10-16T20:17:26.029Z,10.94
2022-10-16T20:19:53.848Z,10.90
2022-10-16T20:22:21.700Z,10.85
2022-10-16T20:24:49.197Z,10.76
2022-10-16T20:27:16.506Z,10.76
2022-10-16T20:29:43.648Z,10.76
2022-10-16T20:32:10.888Z,10.66
2022-10-16T20:37:05.712Z,10.62
2022-10-16T20:39:32.741Z,10.65
2022-10-16T20:41:59.622Z,10.72
2022-10-16T20:44:26.462Z,10.64
2022-10-16T20:46:57.279Z,10.60
2022-10-16T20:49:39.432Z,10.62
2022-10-16T20:52:07.174Z,10.60
2022-10-16T20:54:34.181Z,10.67
2022-10-16T20:57:01.059Z,10.59
2022-10-16T20:59:27.915Z,10.55
2022-10-16T21:01:54.770Z,10.51
2022-10-16T21:04:21.554Z,10.64
2022-10-16T21:06:50.986Z,10.54
2022-10-16T21:09:18.219Z,10.50
2022-10-16T21:11:45.038Z,10.50
2022-10-16T21:14:11.864Z,10.40
2022-10-16T21:16:38.671Z,10.46
2022-10-16T21:19:06.635Z,10.43
2022-10-16T21:21:36.164Z,10.49
2022-10-16T21:24:03.007Z,10.49
2022-10-16T21:26:30.569Z,10.58
2022-10-16T21:29:07.576Z,10.57
2022-10-16T21:31:35.925Z,10.51
2022-10-16T21:34:03.142Z,10.51
2022-10-16T21:36:35.774Z,10.61
2022-10-16T21:39:09.110Z,10.54
2022-10-16T21:41:36.957Z,10.63
2022-10-16T21:44:04.639Z,10.61
2022-10-16T21:46:34.362Z,10.74
2022-10-16T21:49:03.288Z,10.70
2022-10-16T21:51:33.974Z,10.69
2022-10-16T21:54:01.848Z,10.71
2022-10-16T21:56:28.869Z,10.68
2022-10-16T21:58:55.902Z,10.81
2022-10-16T22:01:24.895Z,10.82
2022-10-16T22:03:52.054Z,10.93
2022-10-16T22:08:52.092Z,10.80
2022-10-16T22:11:23.848Z,10.83
2022-10-16T22:13:54.267Z,11.07
2022-10-16T22:16:25.683Z,10.99
2022-10-16T22:18:54.421Z,10.87
2022-10-16T22:21:21.573Z,10.95
2022-10-16T22:23:48.414Z,10.92
2022-10-16T22:26:15.523Z,11.02
2022-10-16T22:28:43.077Z,10.99
2022-10-16T22:31:12.102Z,11.07
2022-10-16T22:33:39.113Z,11.10
2022-10-16T22:36:08.933Z,11.07
2022-10-16T22:38:36.976Z,11.02
2022-10-16T22:41:06.923Z,11.06
2022-10-16T22:43:37.655Z,10.97
2022-10-16T22:46:06.159Z,10.94
2022-10-16T22:48:32.815Z,10.92
2022-10-16T22:50:59.767Z,10.90
2022-10-16T22:53:26.606Z,10.97
2022-10-16T22:55:53.557Z,10.87
2022-10-16T22:58:20.306Z,10.93
2022-10-16T23:03:34.383Z,10.82
2022-10-16T23:06:04.030Z,11.01
2022-10-16T23:08:30.744Z,10.94
2022-10-16T23:11:01.031Z,10.92
2022-10-16T23:13:28.477Z,10.88
2022-10-16T23:15:55.230Z,10.88
2022-10-16T23:18:22.003Z,10.86
2022-10-16T23:20:48.747Z,10.97
2022-10-16T23:23:15.387Z,11.04
2022-10-16T23:25:47.147Z,11.02
2022-10-16T23:30:47.059Z,11.01
2022-10-16T23:33:13.820Z,10.98
2022-10-16T23:35:41.201Z,10.96
2022-10-16T23:38:07.962Z,10.98
2022-10-16T23:40:34.694Z,10.98
2022-10-16T23:43:01.584Z,11.17
2022-10-16T23:45:28.285Z,11.20
2022-10-16T23:47:55.067Z,11.16
2022-10-16T23:50:21.772Z,11.04
2022-10-16T23:52:48.475Z,11.02
2022-10-16T23:55:15.234Z,10.96
2022-10-16T23:57:41.913Z,11.00
